createdAt,value
2022-08-12T00:00:18.485Z,2.30
2022-08-12T00:03:23.769Z,2.40
2022-08-12T00:06:30.137Z,2.33
2022-08-12T00:09:35.143Z,3.13
2022-08-12T00:12:41.029Z,2.33
2022-08-12T00:15:46.200Z,2.10
2022-08-12T00:18:51.087Z,2.20
2022-08-12T00:21:56.693Z,1.90
2022-08-12T00:25:02.070Z,2.30
2022-08-12T00:28:08.122Z,2.50
2022-08-12T00:31:13.421Z,2.40
2022-08-12T00:34:18.757Z,2.50
2022-08-12T00:37:25.954Z,2.27
2022-08-12T00:40:33.438Z,2.67
2022-08-12T00:43:20.919Z,2.70
2022-08-12T00:46:25.839Z,2.60
2022-08-12T00:49:12.650Z,2.40
2022-08-12T00:52:07.388Z,2.40
2022-08-12T00:54:59.144Z,2.37
2022-08-12T00:57:49.266Z,2.43
2022-08-12T01:00:35.758Z,2.37
2022-08-12T01:03:22.130Z,2.43
2022-08-12T01:06:27.656Z,2.30
2022-08-12T01:09:33.160Z,2.10
2022-08-12T01:12:20.316Z,3.77
2022-08-12T01:15:07.526Z,2.60
2022-08-12T01:17:53.955Z,2.20
2022-08-12T01:20:56.419Z,2.73
2022-08-12T01:24:31.001Z,2.57
2022-08-12T01:27:15.231Z,2.40
2022-08-12T01:30:07.788Z,2.97
2022-08-12T01:32:56.667Z,2.50
2022-08-12T01:36:07.973Z,2.80
2022-08-12T01:38:59.256Z,2.33
2022-08-12T01:41:53.786Z,2.60
2022-08-12T01:44:40.384Z,2.70
2022-08-12T01:47:52.024Z,2.77
2022-08-12T01:50:50.701Z,2.80
2022-08-12T01:53:58.663Z,2.73
2022-08-12T01:56:51.318Z,2.43
2022-08-12T01:59:59.425Z,2.70
2022-08-12T02:03:03.938Z,3.17
2022-08-12T02:06:20.876Z,2.90
2022-08-12T02:09:29.845Z,2.30
2022-08-12T02:12:28.596Z,2.23
2022-08-12T02:15:51.962Z,2.30
2022-08-12T02:18:49.850Z,2.50
2022-08-12T02:21:46.445Z,2.50
2022-08-12T02:24:37.397Z,2.40
2022-08-12T02:27:27.614Z,2.53
2022-08-12T02:30:20.396Z,2.70
2022-08-12T02:33:06.971Z,2.80
2022-08-12T02:35:54.413Z,2.63
2022-08-12T02:38:42.755Z,2.20
2022-08-12T02:41:32.439Z,2.20
2022-08-12T02:44:21.618Z,2.40
2022-08-12T02:47:59.805Z,2.53
2022-08-12T02:50:20.388Z,2.77
2022-08-12T02:53:07.789Z,2.67
2022-08-12T02:55:54.669Z,2.33
2022-08-12T02:58:45.198Z,2.40
2022-08-12T03:01:34.325Z,2.60
2022-08-12T03:04:32.846Z,2.70
2022-08-12T03:07:36.531Z,2.30
2022-08-12T03:10:41.465Z,2.50
2022-08-12T03:13:36.501Z,2.53
2022-08-12T03:16:23.822Z,2.50
2022-08-12T03:19:10.542Z,2.63
2022-08-12T03:22:12.988Z,2.60
2022-08-12T03:25:03.746Z,2.47
2022-08-12T03:27:55.841Z,2.67
2022-08-12T03:30:43.150Z,3.00
2022-08-12T03:33:34.575Z,2.37
2022-08-12T03:36:21.553Z,2.20
2022-08-12T03:39:35.985Z,2.53
2022-08-12T03:42:40.430Z,2.40
2022-08-12T03:45:52.024Z,2.40
2022-08-12T03:48:59.774Z,3.07
2022-08-12T03:52:05.666Z,2.57
2022-08-12T03:55:10.511Z,2.50
2022-08-12T03:58:15.770Z,2.80
2022-08-12T04:01:02.201Z,3.30
2022-08-12T04:03:52.477Z,2.97
2022-08-12T04:06:46.585Z,2.50
2022-08-12T04:09:33.269Z,2.57
2022-08-12T04:12:38.631Z,2.63
2022-08-12T04:15:27.786Z,2.70
2022-08-12T04:18:18.717Z,2.80
2022-08-12T04:21:09.936Z,2.27
2022-08-12T04:23:58.221Z,2.63
2022-08-12T04:26:44.490Z,2.70
2022-08-12T04:30:29.654Z,2.83
2022-08-12T04:32:44.170Z,2.80
2022-08-12T04:35:31.617Z,2.83
2022-08-12T04:38:19.807Z,2.60
2022-08-12T04:41:06.581Z,2.50
2022-08-12T04:44:02.476Z,3.13
2022-08-12T04:46:49.210Z,3.03
2022-08-12T04:49:36.841Z,2.83
2022-08-12T04:52:23.471Z,3.13
2022-08-12T04:55:13.979Z,2.47
2022-08-12T04:58:00.556Z,2.80
2022-08-12T05:00:47.351Z,2.73
2022-08-12T05:03:46.241Z,2.50
2022-08-12T05:06:33.291Z,2.60
2022-08-12T05:09:19.711Z,2.70
2022-08-12T05:12:09.084Z,2.67
2022-08-12T05:14:55.894Z,2.83
2022-08-12T05:17:43.398Z,2.40
2022-08-12T05:20:30.757Z,2.10
2022-08-12T05:23:19.337Z,2.40
2022-08-12T05:26:06.205Z,3.00
2022-08-12T05:28:54.063Z,3.00
2022-08-12T05:31:47.266Z,2.60
2022-08-12T05:34:34.639Z,3.30
2022-08-12T05:37:22.619Z,2.33
2022-08-12T05:40:11.446Z,2.50
2022-08-12T05:42:58.283Z,2.60
2022-08-12T05:45:45.852Z,2.80
2022-08-12T05:48:32.479Z,2.70
2022-08-12T05:51:18.968Z,3.57
2022-08-12T05:54:05.488Z,2.60
2022-08-12T05:56:52.148Z,2.37
2022-08-12T05:59:39.771Z,2.80
2022-08-12T06:02:26.322Z,2.60
2022-08-12T06:05:12.881Z,2.50
2022-08-12T06:08:03.071Z,2.93
2022-08-12T06:10:50.383Z,2.30
2022-08-12T06:13:54.319Z,2.27
2022-08-12T06:16:41.302Z,2.40
2022-08-12T06:20:22.754Z,2.60
2022-08-12T06:22:36.043Z,2.37
2022-08-12T06:25:22.886Z,2.63
2022-08-12T06:28:21.173Z,2.37
2022-08-12T06:31:24.872Z,2.47
2022-08-12T06:35:25.826Z,2.73
2022-08-12T06:37:20.770Z,2.70
2022-08-12T06:40:13.651Z,2.93
2022-08-12T06:43:00.154Z,2.53
2022-08-12T06:45:49.443Z,2.60
2022-08-12T06:48:37.365Z,2.60
2022-08-12T06:51:27.963Z,2.37
2022-08-12T06:54:14.333Z,2.40
2022-08-12T06:58:08.247Z,2.90
2022-08-12T07:00:32.443Z,2.23
2022-08-12T07:03:27.658Z,2.47
2022-08-12T07:06:14.122Z,2.30
2022-08-12T07:09:00.473Z,2.60
2022-08-12T07:11:50.901Z,2.53
2022-08-12T07:14:40.682Z,2.30
2022-08-12T07:17:37.278Z,2.40
2022-08-12T07:20:50.192Z,2.10
2022-08-12T07:23:33.908Z,2.23
2022-08-12T07:26:21.367Z,2.37
2022-08-12T07:29:13.087Z,2.50
2022-08-12T07:31:59.722Z,2.23
2022-08-12T07:34:47.290Z,2.60
2022-08-12T07:37:35.064Z,2.30
2022-08-12T07:40:21.874Z,3.53
2022-08-12T07:43:08.115Z,2.10
2022-08-12T07:45:55.311Z,2.63
2022-08-12T07:48:48.875Z,2.97
2022-08-12T07:51:35.470Z,2.33
2022-08-12T07:54:22.303Z,2.93
2022-08-12T07:57:11.664Z,2.27
2022-08-12T08:00:04.644Z,2.20
2022-08-12T08:02:54.419Z,2.20
2022-08-12T08:05:46.142Z,2.37
2022-08-12T08:08:32.677Z,2.03
2022-08-12T08:11:37.682Z,2.37
2022-08-12T08:14:28.398Z,3.07
2022-08-12T08:17:15.152Z,2.40
2022-08-12T08:20:03.779Z,2.40
2022-08-12T08:22:50.816Z,2.10
2022-08-12T08:25:38.823Z,2.40
2022-08-12T08:28:25.250Z,2.20
2022-08-12T08:31:13.446Z,2.37
2022-08-12T08:34:40.115Z,2.17
2022-08-12T08:37:10.753Z,2.27
2022-08-12T08:40:22.030Z,2.30
2022-08-12T08:43:08.454Z,2.30
2022-08-12T08:45:56.596Z,2.35
2022-08-12T08:48:43.070Z,1.80
2022-08-12T08:51:29.322Z,2.40
2022-08-12T08:54:16.303Z,2.08
2022-08-12T08:57:04.254Z,2.42
2022-08-12T08:59:51.806Z,1.77
2022-08-12T09:02:38.342Z,2.50
2022-08-12T09:05:25.697Z,2.10
2022-08-12T09:08:22.448Z,2.10
2022-08-12T09:12:06.673Z,1.92
2022-08-12T09:14:38.966Z,2.00
2022-08-12T09:17:25.960Z,1.85
2022-08-12T09:20:16.302Z,2.13
2022-08-12T09:26:12.217Z,2.00
2022-08-12T09:29:00.414Z,1.92
2022-08-12T09:32:07.460Z,1.73
2022-08-12T09:34:54.810Z,2.00
2022-08-12T09:37:58.330Z,1.70
2022-08-12T09:41:01.980Z,1.70
2022-08-12T09:44:38.406Z,1.95
2022-08-12T09:47:20.360Z,1.77
2022-08-12T09:50:20.454Z,1.50
2022-08-12T09:53:15.443Z,1.67
2022-08-12T09:56:39.655Z,1.65
2022-08-12T09:59:09.807Z,1.70
2022-08-12T10:02:41.856Z,1.60
2022-08-12T10:05:03.525Z,1.77
2022-08-12T10:07:50.116Z,1.70
2022-08-12T10:10:58.559Z,1.95
2022-08-12T10:13:46.207Z,2.00
2022-08-12T10:16:39.452Z,1.80
2022-08-12T10:19:36.076Z,2.00
2022-08-12T10:22:49.138Z,1.63
2022-08-12T10:26:33.754Z,1.70
2022-08-12T10:29:27.747Z,1.90
2022-08-12T10:32:45.239Z,1.73
2022-08-12T10:35:31.315Z,2.08
2022-08-12T10:38:35.029Z,1.92
2022-08-12T10:41:57.431Z,1.60
2022-08-12T10:44:46.761Z,2.83
2022-08-12T10:48:19.095Z,1.85
2022-08-12T10:51:00.906Z,1.65
2022-08-12T10:53:49.111Z,1.73
2022-08-12T10:56:41.696Z,2.10
2022-08-12T10:59:39.156Z,1.77
2022-08-12T11:04:28.359Z,2.10
2022-08-12T11:07:08.564Z,1.90
2022-08-12T11:08:51.546Z,1.80
2022-08-12T11:12:34.645Z,1.60
2022-08-12T11:14:51.203Z,1.75
2022-08-12T11:17:51.890Z,1.60
2022-08-12T11:20:40.604Z,1.90
2022-08-12T11:23:36.492Z,1.80
2022-08-12T11:26:23.962Z,1.80
2022-08-12T11:29:22.132Z,1.83
2022-08-12T11:32:09.519Z,1.48
2022-08-12T11:34:59.435Z,1.60
2022-08-12T11:37:58.727Z,1.60
2022-08-12T11:40:45.864Z,1.90
2022-08-12T11:43:33.458Z,1.52
2022-08-12T11:46:38.405Z,1.80
2022-08-12T11:49:30.593Z,2.03
2022-08-12T11:52:53.954Z,1.60
2022-08-12T11:55:27.574Z,1.73
2022-08-12T11:59:38.215Z,1.60
2022-08-12T12:02:02.131Z,1.65
2022-08-12T12:04:29.646Z,1.70
2022-08-12T12:07:16.438Z,1.80
2022-08-12T12:10:03.490Z,1.90
2022-08-12T12:12:50.756Z,1.58
2022-08-12T12:15:41.305Z,1.80
2022-08-12T12:18:31.070Z,1.75
2022-08-12T12:21:17.922Z,1.30
2022-08-12T12:24:24.425Z,1.70
2022-08-12T12:27:13.710Z,1.40
2022-08-12T12:30:18.662Z,1.60
2022-08-12T12:33:18.117Z,1.63
2022-08-12T12:36:20.755Z,1.67
2022-08-12T12:39:10.825Z,1.67
2022-08-12T12:42:44.289Z,1.52
2022-08-12T12:45:19.443Z,1.73
2022-08-12T12:48:11.289Z,1.48
2022-08-12T12:51:49.158Z,1.30
2022-08-12T12:54:28.892Z,1.50
2022-08-12T12:57:15.481Z,1.80
2022-08-12T13:00:16.562Z,1.48
2022-08-12T13:03:02.840Z,1.90
2022-08-12T13:05:53.737Z,1.80
2022-08-12T13:08:40.705Z,1.40
2022-08-12T13:11:41.375Z,1.63
2022-08-12T13:14:31.267Z,1.60
2022-08-12T13:17:21.276Z,2.10
2022-08-12T13:20:07.962Z,1.80
2022-08-12T13:22:54.481Z,1.60
2022-08-12T13:25:42.693Z,1.60
2022-08-12T13:28:31.015Z,1.52
2022-08-12T13:31:17.307Z,1.63
2022-08-12T13:34:32.690Z,1.40
2022-08-12T13:37:11.554Z,1.38
2022-08-12T13:39:58.309Z,1.58
2022-08-12T13:42:48.710Z,1.83
2022-08-12T13:45:37.753Z,1.70
2022-08-12T13:48:24.049Z,1.70
2022-08-12T13:51:24.164Z,1.60
2022-08-12T13:54:13.955Z,1.45
2022-08-12T13:57:00.722Z,1.38
2022-08-12T13:59:48.685Z,1.50
2022-08-12T14:02:41.634Z,1.35
2022-08-12T14:05:37.861Z,1.52
2022-08-12T14:08:25.235Z,1.80
2022-08-12T14:11:12.367Z,1.55
2022-08-12T14:14:03.855Z,1.50
2022-08-12T14:17:02.376Z,1.63
2022-08-12T14:20:10.675Z,1.55
2022-08-12T14:22:59.869Z,1.77
2022-08-12T14:26:11.758Z,1.40
2022-08-12T14:29:02.015Z,2.03
2022-08-12T14:31:53.225Z,1.50
2022-08-12T14:34:40.153Z,1.30
2022-08-12T14:37:57.475Z,1.48
2022-08-12T14:40:40.471Z,1.55
2022-08-12T14:43:44.398Z,1.50
2022-08-12T14:46:46.862Z,1.80
2022-08-12T14:50:33.461Z,1.63
2022-08-12T14:54:33.681Z,1.45
2022-08-12T14:59:20.379Z,1.40
2022-08-12T15:02:10.393Z,1.50
2022-08-12T15:04:59.612Z,1.50
2022-08-12T15:07:50.881Z,1.48
2022-08-12T15:10:46.197Z,1.40
2022-08-12T15:13:45.627Z,1.38
2022-08-12T15:16:32.911Z,1.80
2022-08-12T15:20:11.460Z,1.63
2022-08-12T15:22:37.912Z,1.55
2022-08-12T15:25:30.268Z,1.52
2022-08-12T15:28:35.521Z,2.10
2022-08-12T15:31:28.291Z,1.52
2022-08-12T15:34:30.851Z,1.52
2022-08-12T15:37:18.307Z,1.65
2022-08-12T15:40:05.994Z,1.50
2022-08-12T15:42:54.544Z,1.55
2022-08-12T15:45:46.889Z,1.52
2022-08-12T15:48:34.213Z,1.45
2022-08-12T15:51:58.774Z,1.20
2022-08-12T15:54:42.379Z,1.55
2022-08-12T15:57:33.313Z,1.55
2022-08-12T16:00:32.736Z,1.67
2022-08-12T16:03:28.597Z,1.33
2022-08-12T16:09:56.157Z,1.40
2022-08-12T16:12:54.685Z,1.50
2022-08-12T16:15:42.489Z,1.80
2022-08-12T16:18:48.901Z,1.58
2022-08-12T16:21:52.947Z,1.40
2022-08-12T16:24:43.461Z,1.60
2022-08-12T16:27:31.601Z,1.80
2022-08-12T16:30:31.412Z,1.50
2022-08-12T16:33:19.710Z,1.17
2022-08-12T16:36:11.402Z,1.35
2022-08-12T16:39:01.664Z,1.33
2022-08-12T16:41:48.322Z,1.50
2022-08-12T16:44:37.377Z,1.58
2022-08-12T16:47:27.205Z,1.55
2022-08-12T16:50:14.420Z,1.58
2022-08-12T16:53:02.438Z,1.50
2022-08-12T16:55:54.989Z,1.40
2022-08-12T16:58:41.914Z,1.58
2022-08-12T17:01:34.342Z,1.33
2022-08-12T17:04:24.336Z,1.35
2022-08-12T17:07:20.929Z,1.58
2022-08-12T17:10:11.994Z,1.23
2022-08-12T17:12:58.428Z,1.23
2022-08-12T17:15:57.528Z,1.30
2022-08-12T17:18:57.207Z,1.50
2022-08-12T17:21:51.855Z,1.52
2022-08-12T17:24:54.480Z,1.45
2022-08-12T17:27:46.265Z,1.38
2022-08-12T17:30:35.186Z,1.27
2022-08-12T17:33:24.841Z,1.08
2022-08-12T17:36:11.463Z,1.20
2022-08-12T17:38:57.757Z,1.30
2022-08-12T17:41:56.352Z,1.63
2022-08-12T17:44:44.015Z,1.20
2022-08-12T17:47:31.230Z,1.45
2022-08-12T17:50:23.205Z,1.13
2022-08-12T17:53:19.338Z,1.05
2022-08-12T17:56:07.581Z,1.40
2022-08-12T17:58:58.161Z,1.30
2022-08-12T18:01:46.236Z,1.70
2022-08-12T18:04:35.838Z,1.40
2022-08-12T18:07:23.435Z,1.30
2022-08-12T18:10:11.730Z,1.27
2022-08-12T18:13:01.181Z,1.20
2022-08-12T18:16:04.403Z,1.52
2022-08-12T18:18:57.175Z,1.60
2022-08-12T18:22:01.136Z,1.35
2022-08-12T18:24:53.606Z,1.83
2022-08-12T18:27:50.880Z,1.40
2022-08-12T18:31:02.269Z,1.77
2022-08-12T18:33:50.142Z,1.40
2022-08-12T18:36:37.806Z,1.60
2022-08-12T18:39:48.696Z,1.60
2022-08-12T18:42:35.267Z,1.33
2022-08-12T18:45:24.785Z,1.30
2022-08-12T18:48:23.402Z,1.38
2022-08-12T18:51:21.739Z,1.55
2022-08-12T18:54:21.695Z,1.70
2022-08-12T18:57:16.800Z,1.70
2022-08-12T19:00:07.972Z,1.58
2022-08-12T19:02:54.628Z,1.50
2022-08-12T19:05:53.070Z,1.33
2022-08-12T19:08:47.155Z,1.63
2022-08-12T19:11:53.130Z,1.40
2022-08-12T19:14:43.476Z,1.43
2022-08-12T19:17:56.703Z,1.43
2022-08-12T19:20:39.234Z,1.70
2022-08-12T19:23:33.772Z,1.50
2022-08-12T19:26:26.949Z,1.60
2022-08-12T19:29:18.107Z,1.33
2022-08-12T19:32:09.535Z,1.60
2022-08-12T19:36:06.546Z,1.50
2022-08-12T19:38:06.610Z,1.47
2022-08-12T19:40:56.468Z,1.90
2022-08-12T19:44:00.315Z,1.60
2022-08-12T19:46:53.494Z,1.33
2022-08-12T19:49:55.150Z,1.60
2022-08-12T19:52:41.801Z,1.70
2022-08-12T19:55:29.455Z,1.50
2022-08-12T19:58:22.806Z,1.90
2022-08-12T20:01:11.549Z,1.97
2022-08-12T20:03:59.286Z,2.20
2022-08-12T20:06:51.529Z,1.67
2022-08-12T20:09:41.992Z,1.53
2022-08-12T20:12:32.918Z,1.70
2022-08-12T20:15:26.265Z,1.90
2022-08-12T20:18:44.373Z,1.80
2022-08-12T20:21:40.427Z,1.60
2022-08-12T20:24:31.190Z,1.50
2022-08-12T20:27:28.680Z,1.57
2022-08-12T20:30:52.604Z,2.00
2022-08-12T20:33:50.615Z,1.40
2022-08-12T20:36:41.116Z,1.53
2022-08-12T20:39:52.420Z,1.60
2022-08-12T20:42:36.068Z,1.30
2022-08-12T20:45:22.602Z,1.50
2022-08-12T20:48:12.511Z,1.50
2022-08-12T20:51:04.290Z,1.13
2022-08-12T20:53:58.434Z,1.53
2022-08-12T20:56:45.831Z,1.50
2022-08-12T20:59:33.066Z,1.47
2022-08-12T21:02:24.664Z,1.70
2022-08-12T21:06:12.668Z,1.43
2022-08-12T21:09:01.002Z,1.37
2022-08-12T21:11:50.558Z,1.57
2022-08-12T21:14:39.979Z,1.80
2022-08-12T21:18:09.025Z,1.73
2022-08-12T21:20:55.727Z,1.90
2022-08-12T21:23:42.111Z,1.70
2022-08-12T21:26:28.647Z,1.70
2022-08-12T21:29:16.355Z,1.80
2022-08-12T21:32:38.042Z,1.80
2022-08-12T21:35:11.675Z,1.60
2022-08-12T21:38:05.778Z,1.60
2022-08-12T21:40:53.537Z,1.70
2022-08-12T21:43:45.107Z,1.83
2022-08-12T21:46:38.464Z,2.40
2022-08-12T21:49:53.434Z,1.80
2022-08-12T21:52:34.615Z,1.80
2022-08-12T21:55:35.438Z,2.07
2022-08-12T21:58:22.260Z,1.90
2022-08-12T22:01:20.052Z,1.67
2022-08-12T22:04:28.997Z,1.60
2022-08-12T22:07:18.751Z,2.00
2022-08-12T22:10:06.598Z,1.90
2022-08-12T22:13:01.078Z,1.70
2022-08-12T22:15:52.513Z,1.80
2022-08-12T22:18:50.305Z,1.50
2022-08-12T22:21:48.109Z,1.70
2022-08-12T22:24:35.201Z,1.47
2022-08-12T22:27:33.192Z,1.80
2022-08-12T22:30:39.278Z,2.13
2022-08-12T22:33:25.517Z,2.40
2022-08-12T22:36:20.567Z,2.33
2022-08-12T22:39:11.519Z,2.10
2022-08-12T22:42:31.510Z,2.20
2022-08-12T22:45:48.612Z,1.87
2022-08-12T22:48:50.295Z,2.00
2022-08-12T22:51:57.719Z,1.73
2022-08-12T22:54:59.972Z,1.70
2022-08-12T22:57:54.944Z,1.60
2022-08-12T23:00:49.339Z,1.80
2022-08-12T23:03:49.580Z,1.80
2022-08-12T23:06:36.979Z,1.90
2022-08-12T23:09:26.472Z,1.60
2022-08-12T23:12:47.194Z,1.50
2022-08-12T23:15:37.134Z,1.70
2022-08-12T23:18:24.041Z,1.60
2022-08-12T23:21:19.874Z,1.70
2022-08-12T23:24:10.904Z,1.90
2022-08-12T23:27:18.333Z,1.40
2022-08-12T23:30:19.215Z,2.10
2022-08-12T23:33:59.668Z,1.70
2022-08-12T23:36:31.611Z,1.67
2022-08-12T23:40:13.111Z,1.80
2022-08-12T23:42:32.875Z,1.83
2022-08-12T23:45:30.627Z,2.63
2022-08-12T23:48:23.255Z,1.73
2022-08-12T23:51:26.605Z,1.93
2022-08-12T23:54:33.140Z,1.87
2022-08-12T23:57:26.532Z,1.50
